createdAt,value
2018-03-28T00:02:09.968Z,9.50
2018-03-28T00:04:38.921Z,9.93
2018-03-28T00:07:06.449Z,9.63
2018-03-28T00:09:33.893Z,11.10
2018-03-28T00:12:02.115Z,10.20
2018-03-28T00:14:29.636Z,10.27
2018-03-28T00:16:57.846Z,9.77
2018-03-28T00:19:27.414Z,9.93
2018-03-28T00:21:55.635Z,9.97
2018-03-28T00:24:23.104Z,10.70
2018-03-28T00:26:50.565Z,10.00
2018-03-28T00:29:18.020Z,10.20
2018-03-28T00:31:45.477Z,10.07
2018-03-28T00:34:12.983Z,9.67
2018-03-28T00:36:40.433Z,9.27
2018-03-28T00:39:07.898Z,9.20
2018-03-28T00:41:35.399Z,9.60
2018-03-28T00:44:02.860Z,8.50
2018-03-28T00:46:30.311Z,10.47
2018-03-28T00:48:57.802Z,7.97
2018-03-28T00:51:36.952Z,8.63
2018-03-28T00:54:04.431Z,7.97
2018-03-28T00:56:31.876Z,7.90
2018-03-28T00:58:59.364Z,7.70
2018-03-28T01:01:26.804Z,7.27
2018-03-28T01:03:54.256Z,7.93
2018-03-28T01:06:21.774Z,7.33
2018-03-28T01:08:50.015Z,7.27
2018-03-28T01:11:17.488Z,6.60
2018-03-28T01:13:44.946Z,7.77
2018-03-28T01:16:13.151Z,6.90
2018-03-28T01:18:40.635Z,6.40
2018-03-28T01:21:08.104Z,6.50
2018-03-28T01:23:35.554Z,6.50
2018-03-28T01:26:03.025Z,7.43
2018-03-28T01:28:30.480Z,5.80
2018-03-28T01:30:57.956Z,6.53
2018-03-28T01:33:26.173Z,6.00
2018-03-28T01:35:53.655Z,6.33
2018-03-28T01:38:21.095Z,5.90
2018-03-28T01:40:48.566Z,6.03
2018-03-28T01:43:16.030Z,6.20
2018-03-28T01:45:43.479Z,5.17
2018-03-28T01:48:11.058Z,6.03
2018-03-28T01:50:38.439Z,5.40
2018-03-28T01:53:06.333Z,5.17
2018-03-28T01:55:33.835Z,5.77
2018-03-28T01:58:01.324Z,5.33
2018-03-28T02:00:28.801Z,5.80
2018-03-28T02:02:56.324Z,5.03
2018-03-28T02:05:24.539Z,5.20
2018-03-28T02:07:51.989Z,4.50
2018-03-28T02:10:19.471Z,4.90
2018-03-28T02:12:46.919Z,4.90
2018-03-28T02:15:14.378Z,4.50
2018-03-28T02:17:41.838Z,4.17
2018-03-28T02:20:09.303Z,3.67
2018-03-28T02:22:36.776Z,4.37
2018-03-28T02:25:04.232Z,4.50
2018-03-28T02:27:31.706Z,3.70
2018-03-28T02:29:59.918Z,4.23
2018-03-28T02:32:27.382Z,3.60
2018-03-28T02:34:54.830Z,3.40
2018-03-28T02:37:22.307Z,4.50
2018-03-28T02:39:49.747Z,3.43
2018-03-28T02:42:17.229Z,3.90
2018-03-28T02:44:44.675Z,3.47
2018-03-28T02:47:12.150Z,3.60
2018-03-28T02:49:39.584Z,3.30
2018-03-28T02:52:07.049Z,3.20
2018-03-28T02:54:34.533Z,3.70
2018-03-28T02:57:01.993Z,2.90
2018-03-28T02:59:30.237Z,4.07
2018-03-28T03:01:57.691Z,3.30
2018-03-28T03:04:25.142Z,2.97
2018-03-28T03:06:52.616Z,3.20
2018-03-28T03:09:20.059Z,3.57
2018-03-28T03:11:47.559Z,2.87
2018-03-28T03:14:15.779Z,2.70
2018-03-28T03:16:43.259Z,2.93
2018-03-28T03:19:10.736Z,3.30
2018-03-28T03:21:38.175Z,3.10
2018-03-28T03:24:05.657Z,3.30
2018-03-28T03:26:33.865Z,2.37
2018-03-28T03:29:01.335Z,2.80
2018-03-28T03:31:28.809Z,2.63
2018-03-28T03:33:56.260Z,3.20
2018-03-28T03:36:23.740Z,3.17
2018-03-28T03:38:51.190Z,2.83
2018-03-28T03:41:18.665Z,2.80
2018-03-28T03:43:46.871Z,3.43
2018-03-28T03:46:14.341Z,3.27
2018-03-28T03:48:41.789Z,3.50
2018-03-28T03:51:09.293Z,2.90
2018-03-28T03:53:36.731Z,2.73
2018-03-28T03:56:04.205Z,2.93
2018-03-28T03:58:32.448Z,2.80
2018-03-28T04:00:59.931Z,2.47
2018-03-28T04:03:27.411Z,2.50
2018-03-28T04:05:55.620Z,2.63
2018-03-28T04:08:23.094Z,2.37
2018-03-28T04:10:50.550Z,2.50
2018-03-28T04:13:18.744Z,3.00
2018-03-28T04:15:46.199Z,2.30
2018-03-28T04:18:13.668Z,2.13
2018-03-28T04:20:41.128Z,3.03
2018-03-28T04:23:08.603Z,2.50
2018-03-28T04:25:36.819Z,2.77
2018-03-28T04:28:04.290Z,2.60
2018-03-28T04:30:31.797Z,2.97
2018-03-28T04:32:59.287Z,2.73
2018-03-28T04:35:26.735Z,3.10
2018-03-28T04:37:54.193Z,2.43
2018-03-28T04:40:21.664Z,2.87
2018-03-28T04:42:49.122Z,2.60
2018-03-28T04:45:16.722Z,2.73
2018-03-28T04:47:44.973Z,2.47
2018-03-28T04:50:12.461Z,2.80
2018-03-28T04:52:40.691Z,2.80
2018-03-28T04:55:08.143Z,2.50
2018-03-28T04:57:35.634Z,3.37
2018-03-28T05:00:03.077Z,3.70
2018-03-28T05:02:32.036Z,3.80
2018-03-28T05:04:59.513Z,3.10
2018-03-28T05:07:26.967Z,3.20
2018-03-28T05:09:54.487Z,4.30
2018-03-28T05:12:21.936Z,3.40
2018-03-28T05:14:49.399Z,2.93
2018-03-28T05:17:16.863Z,3.13
2018-03-28T05:19:44.338Z,3.43
2018-03-28T05:22:11.784Z,3.50
2018-03-28T05:24:39.317Z,3.20
2018-03-28T05:27:07.536Z,3.40
2018-03-28T05:29:35.009Z,3.30
2018-03-28T05:32:02.477Z,3.27
2018-03-28T05:34:29.956Z,3.43
2018-03-28T05:36:58.162Z,3.80
2018-03-28T05:39:25.603Z,3.77
2018-03-28T05:41:53.082Z,4.07
2018-03-28T05:44:20.540Z,4.40
2018-03-28T05:46:48.020Z,3.90
2018-03-28T05:49:15.518Z,4.67
2018-03-28T05:51:43.008Z,4.00
2018-03-28T05:54:10.489Z,4.40
2018-03-28T05:56:37.939Z,4.67
2018-03-28T05:59:05.395Z,4.70
2018-03-28T06:01:33.645Z,4.67
2018-03-28T06:04:01.119Z,4.40
2018-03-28T06:06:28.580Z,4.07
2018-03-28T06:08:56.076Z,3.63
2018-03-28T06:11:23.513Z,3.97
2018-03-28T06:13:50.987Z,4.13
2018-03-28T06:16:19.256Z,5.10
2018-03-28T06:18:47.463Z,3.77
2018-03-28T06:21:14.940Z,3.60
2018-03-28T06:23:42.400Z,5.07
2018-03-28T06:26:09.870Z,4.80
2018-03-28T06:28:37.365Z,5.10
2018-03-28T06:31:05.575Z,4.80
2018-03-28T06:33:33.073Z,5.50
2018-03-28T06:36:00.507Z,4.57
2018-03-28T06:38:27.985Z,5.97
2018-03-28T06:40:56.211Z,4.90
2018-03-28T06:43:23.712Z,5.60
2018-03-28T06:45:51.163Z,5.60
2018-03-28T06:48:18.625Z,6.20
2018-03-28T06:50:46.094Z,5.80
2018-03-28T06:53:14.328Z,5.10
2018-03-28T06:55:41.799Z,4.90
2018-03-28T06:58:09.263Z,3.47
2018-03-28T07:00:36.719Z,4.60
2018-03-28T07:03:04.189Z,4.53
2018-03-28T07:05:31.655Z,4.90
2018-03-28T07:07:59.871Z,5.13
2018-03-28T07:10:27.357Z,5.80
2018-03-28T07:12:54.851Z,5.37
2018-03-28T07:15:23.098Z,5.23
2018-03-28T07:17:50.571Z,4.47
2018-03-28T07:20:18.787Z,4.93
2018-03-28T07:22:46.263Z,4.90
2018-03-28T07:25:13.713Z,4.87
2018-03-28T07:27:41.195Z,4.70
2018-03-28T07:30:08.679Z,4.50
2018-03-28T07:32:36.891Z,6.03
2018-03-28T07:35:04.369Z,5.17
2018-03-28T07:37:31.827Z,5.13
2018-03-28T07:39:59.312Z,4.83
2018-03-28T07:42:26.756Z,5.27
2018-03-28T07:44:54.307Z,4.80
2018-03-28T07:47:21.759Z,4.70
2018-03-28T07:49:49.248Z,3.97
2018-03-28T07:52:17.452Z,5.40
2018-03-28T07:54:44.941Z,4.50
2018-03-28T07:57:12.371Z,4.50
2018-03-28T07:59:39.823Z,5.13
2018-03-28T08:02:07.328Z,4.33
2018-03-28T08:04:34.768Z,5.53
2018-03-28T08:07:02.263Z,4.40
2018-03-28T08:09:30.524Z,5.00
2018-03-28T08:11:57.944Z,4.90
2018-03-28T08:14:25.413Z,5.20
2018-03-28T08:16:52.897Z,4.80
2018-03-28T08:19:21.125Z,4.77
2018-03-28T08:21:48.591Z,4.60
2018-03-28T08:24:16.036Z,5.03
2018-03-28T08:26:43.521Z,5.13
2018-03-28T08:29:10.985Z,3.67
2018-03-28T08:31:38.455Z,3.10
2018-03-28T08:34:06.688Z,3.90
2018-03-28T08:36:34.146Z,3.50
2018-03-28T08:39:01.624Z,3.53
2018-03-28T08:41:29.099Z,3.47
2018-03-28T08:43:57.376Z,4.03
2018-03-28T08:46:24.815Z,3.30
2018-03-28T08:48:53.065Z,3.60
2018-03-28T08:51:20.536Z,3.80
2018-03-28T08:53:48.899Z,3.30
2018-03-28T08:56:16.369Z,3.70
2018-03-28T08:58:43.868Z,3.20
2018-03-28T09:01:12.072Z,3.63
2018-03-28T09:03:39.542Z,3.10
2018-03-28T09:06:07.011Z,2.57
2018-03-28T09:08:34.495Z,3.37
2018-03-28T09:11:02.721Z,3.87
2018-03-28T09:13:30.184Z,2.63
2018-03-28T09:15:57.649Z,5.63
2018-03-28T09:18:25.099Z,5.53
2018-03-28T09:20:52.611Z,6.93
2018-03-28T09:23:20.835Z,7.03
2018-03-28T09:25:48.336Z,7.50
2018-03-28T09:28:16.551Z,7.70
2018-03-28T09:30:44.035Z,7.40
2018-03-28T09:33:11.499Z,8.70
2018-03-28T09:35:38.974Z,7.27
2018-03-28T09:38:07.220Z,7.53
2018-03-28T09:40:34.667Z,7.13
2018-03-28T09:43:02.163Z,7.10
2018-03-28T09:45:30.408Z,8.30
2018-03-28T09:47:57.892Z,7.07
2018-03-28T09:50:26.122Z,7.63
2018-03-28T09:52:53.628Z,7.40
2018-03-28T09:55:21.870Z,7.30
2018-03-28T09:57:49.328Z,7.60
2018-03-28T10:00:22.416Z,7.30
2018-03-28T10:02:49.880Z,7.50
2018-03-28T10:05:17.339Z,7.73
2018-03-28T10:07:45.590Z,6.80
2018-03-28T10:10:13.087Z,6.50
2018-03-28T10:12:41.319Z,5.77
2018-03-28T10:15:08.795Z,4.93
2018-03-28T10:17:36.249Z,5.23
2018-03-28T10:20:03.753Z,6.03
2018-03-28T10:22:31.215Z,5.37
2018-03-28T10:24:58.659Z,4.70
2018-03-28T10:27:26.139Z,4.60
2018-03-28T10:29:53.603Z,6.00
2018-03-28T10:32:21.084Z,6.30
2018-03-28T10:34:48.546Z,3.87
2018-03-28T10:37:16.022Z,1.60
2018-03-28T10:39:44.242Z,1.10
2018-03-28T10:42:11.728Z,1.30
2018-03-28T10:44:39.183Z,1.57
2018-03-28T10:47:06.650Z,1.30
2018-03-28T10:49:34.088Z,1.27
2018-03-28T10:52:01.589Z,1.20
2018-03-28T10:54:29.820Z,1.00
2018-03-28T10:56:57.273Z,1.37
2018-03-28T10:59:24.745Z,1.20
2018-03-28T11:01:52.197Z,1.20
2018-03-28T11:04:19.659Z,0.90
2018-03-28T11:06:47.103Z,0.97
2018-03-28T11:09:14.572Z,1.00
2018-03-28T11:11:42.042Z,1.10
2018-03-28T11:14:09.508Z,1.00
2018-03-28T11:16:37.759Z,0.90
2018-03-28T11:19:05.213Z,0.97
2018-03-28T11:21:32.695Z,1.17
2018-03-28T11:24:00.156Z,0.83
2018-03-28T11:26:28.408Z,1.03
2018-03-28T11:28:55.865Z,1.00
2018-03-28T11:31:23.339Z,1.30
2018-03-28T11:33:51.544Z,1.50
2018-03-28T11:36:19.016Z,1.27
2018-03-28T11:38:46.464Z,1.30
2018-03-28T11:41:13.967Z,1.00
2018-03-28T11:43:41.427Z,1.30
2018-03-28T11:46:08.896Z,1.10
2018-03-28T11:48:37.108Z,1.00
2018-03-28T11:51:04.604Z,1.00
2018-03-28T11:53:32.060Z,1.03
2018-03-28T11:55:59.557Z,1.00
2018-03-28T11:58:27.015Z,1.30
2018-03-28T12:00:54.481Z,1.30
2018-03-28T12:03:21.946Z,1.33
2018-03-28T12:05:49.397Z,1.63
2018-03-28T12:08:16.882Z,1.50
2018-03-28T12:10:44.503Z,1.30
2018-03-28T12:13:13.451Z,1.30
2018-03-28T12:15:40.896Z,1.40
2018-03-28T12:18:09.129Z,1.50
2018-03-28T12:20:36.573Z,1.53
2018-03-28T12:23:04.047Z,1.40
2018-03-28T12:25:31.513Z,1.30
2018-03-28T12:27:58.967Z,1.57
2018-03-28T12:30:26.438Z,1.50
2018-03-28T12:32:53.896Z,1.13
2018-03-28T12:35:21.369Z,1.70
2018-03-28T12:37:49.586Z,1.60
2018-03-28T12:40:17.052Z,1.63
2018-03-28T12:42:44.516Z,1.30
2018-03-28T12:45:12.020Z,1.27
2018-03-28T12:47:39.472Z,1.60
2018-03-28T12:50:06.937Z,1.20
2018-03-28T12:52:35.892Z,1.33
2018-03-28T12:55:03.377Z,1.93
2018-03-28T12:57:30.839Z,1.97
2018-03-28T12:59:58.350Z,1.77
2018-03-28T13:02:25.833Z,1.37
2018-03-28T13:04:54.005Z,1.43
2018-03-28T13:07:21.484Z,1.93
2018-03-28T13:09:49.007Z,1.80
2018-03-28T13:12:16.462Z,1.10
2018-03-28T13:14:43.907Z,1.50
2018-03-28T13:17:11.392Z,1.37
2018-03-28T13:19:38.841Z,1.17
2018-03-28T13:22:06.312Z,1.40
2018-03-28T13:24:33.763Z,1.30
2018-03-28T13:27:01.239Z,1.30
2018-03-28T13:29:28.711Z,1.50
2018-03-28T13:31:56.943Z,1.80
2018-03-28T13:34:24.415Z,1.60
2018-03-28T13:36:51.861Z,1.50
2018-03-28T13:39:19.343Z,1.30
2018-03-28T13:41:47.555Z,1.63
2018-03-28T13:44:15.033Z,1.70
2018-03-28T13:46:42.485Z,1.57
2018-03-28T13:49:09.960Z,1.80
2018-03-28T13:51:37.407Z,1.40
2018-03-28T13:54:04.874Z,1.37
2018-03-28T13:56:32.365Z,1.30
2018-03-28T13:59:00.609Z,1.47
2018-03-28T14:01:28.100Z,1.30
2018-03-28T14:03:56.311Z,1.30
2018-03-28T14:06:23.779Z,1.57
2018-03-28T14:08:51.220Z,1.33
2018-03-28T14:11:18.694Z,1.20
2018-03-28T14:13:46.139Z,1.10
2018-03-28T14:16:13.584Z,1.10
2018-03-28T14:18:41.945Z,1.10
2018-03-28T14:21:09.431Z,1.00
2018-03-28T14:23:36.887Z,1.13
2018-03-28T14:26:04.363Z,0.90
2018-03-28T14:28:31.876Z,1.07
2018-03-28T14:31:00.084Z,1.20
2018-03-28T14:33:27.529Z,1.20
2018-03-28T14:35:55.016Z,1.00
2018-03-28T14:38:22.505Z,1.03
2018-03-28T14:40:50.746Z,1.10
2018-03-28T14:43:18.244Z,1.10
2018-03-28T14:45:45.694Z,1.10
2018-03-28T14:48:13.926Z,1.17
2018-03-28T14:50:41.376Z,1.13
2018-03-28T14:53:08.936Z,1.30
2018-03-28T14:55:36.360Z,1.00
2018-03-28T14:58:03.822Z,0.93
2018-03-28T15:00:31.306Z,1.23
2018-03-28T15:02:58.764Z,1.07
2018-03-28T15:05:26.328Z,1.27
2018-03-28T15:07:53.788Z,1.00
2018-03-28T15:10:21.332Z,1.10
2018-03-28T15:12:48.793Z,1.00
2018-03-28T15:15:16.291Z,1.30
2018-03-28T15:17:44.527Z,1.27
2018-03-28T15:20:12.028Z,1.40
2018-03-28T15:22:40.294Z,2.17
2018-03-28T15:25:08.512Z,1.50
2018-03-28T15:27:35.989Z,1.60
2018-03-28T15:30:03.449Z,1.50
2018-03-28T15:32:30.993Z,1.53
2018-03-28T15:34:58.449Z,1.30
2018-03-28T15:37:25.993Z,1.30
2018-03-28T15:39:53.456Z,1.33
2018-03-28T15:42:21.043Z,1.30
2018-03-28T15:44:48.512Z,1.33
2018-03-28T15:47:15.954Z,1.10
2018-03-28T15:49:43.440Z,1.40
2018-03-28T15:52:11.661Z,1.30
2018-03-28T15:54:39.145Z,1.23
2018-03-28T15:57:08.111Z,1.60
2018-03-28T15:59:35.598Z,1.00
2018-03-28T16:02:03.038Z,1.10
2018-03-28T16:04:30.528Z,1.17
2018-03-28T16:06:58.748Z,1.00
2018-03-28T16:09:26.217Z,1.20
2018-03-28T16:11:53.723Z,1.00
2018-03-28T16:14:22.041Z,1.07
2018-03-28T16:16:49.533Z,1.20
2018-03-28T16:19:16.995Z,1.57
2018-03-28T16:21:45.305Z,1.50
2018-03-28T16:24:12.770Z,1.37
2018-03-28T16:26:40.240Z,2.17
2018-03-28T16:29:07.702Z,1.70
2018-03-28T16:31:35.168Z,2.07
2018-03-28T16:34:02.630Z,2.23
2018-03-28T16:36:30.150Z,1.50
2018-03-28T16:38:57.600Z,1.70
2018-03-28T16:41:25.114Z,1.40
2018-03-28T16:43:52.569Z,1.30
2018-03-28T16:46:20.089Z,1.80
2018-03-28T16:48:47.549Z,3.73
2018-03-28T16:51:15.011Z,2.03
2018-03-28T16:53:42.545Z,2.17
2018-03-28T16:56:10.023Z,1.60
2018-03-28T16:58:37.516Z,1.23
2018-03-28T17:01:05.026Z,1.63
2018-03-28T17:03:33.449Z,1.30
2018-03-28T17:06:00.907Z,1.10
2018-03-28T17:08:28.383Z,1.10
2018-03-28T17:10:55.853Z,1.07
2018-03-28T17:13:23.355Z,1.30
2018-03-28T17:15:50.807Z,1.17
2018-03-28T17:18:18.295Z,1.00
2018-03-28T17:20:45.753Z,1.00
2018-03-28T17:23:13.992Z,1.00
2018-03-28T17:25:41.505Z,1.30
2018-03-28T17:28:08.981Z,1.00
2018-03-28T17:30:36.440Z,1.00
2018-03-28T17:33:03.904Z,1.00
2018-03-28T17:35:31.370Z,1.00
2018-03-28T17:37:58.853Z,1.20
2018-03-28T17:40:26.316Z,1.00
2018-03-28T17:42:53.797Z,1.00
2018-03-28T17:45:22.020Z,1.00
2018-03-28T17:47:49.509Z,1.20
2018-03-28T17:50:17.755Z,1.37
2018-03-28T17:52:45.295Z,1.20
2018-03-28T17:55:12.814Z,1.27
2018-03-28T17:57:41.067Z,1.03
2018-03-28T18:00:08.529Z,1.20
2018-03-28T18:02:36.789Z,1.00
2018-03-28T18:05:04.231Z,1.00
2018-03-28T18:07:31.722Z,1.10
2018-03-28T18:09:59.941Z,1.23
2018-03-28T18:12:27.441Z,1.00
2018-03-28T18:14:54.908Z,1.00
2018-03-28T18:17:23.158Z,1.00
2018-03-28T18:19:51.622Z,1.47
2018-03-28T18:22:19.140Z,1.67
2018-03-28T18:24:46.630Z,1.47
2018-03-28T18:27:14.180Z,1.60
2018-03-28T18:29:41.707Z,1.20
2018-03-28T18:32:09.957Z,0.90
2018-03-28T18:34:37.457Z,1.00
2018-03-28T18:37:04.937Z,0.90
2018-03-28T18:39:32.392Z,0.90
2018-03-28T18:41:59.892Z,0.80
2018-03-28T18:44:28.969Z,1.00
2018-03-28T18:46:56.472Z,1.10
2018-03-28T18:49:24.795Z,1.00
2018-03-28T18:51:52.489Z,1.20
2018-03-28T18:54:20.817Z,1.20
2018-03-28T18:56:48.339Z,1.47
2018-03-28T18:59:16.593Z,1.10
2018-03-28T19:01:44.876Z,0.80
2018-03-28T19:04:12.349Z,0.90
2018-03-28T19:06:39.867Z,0.90
2018-03-28T19:09:07.384Z,0.90
2018-03-28T19:11:34.943Z,0.80
2018-03-28T19:14:02.426Z,0.90
2018-03-28T19:16:29.908Z,0.87
2018-03-28T19:18:57.376Z,1.00
2018-03-28T19:21:25.637Z,0.83
2018-03-28T19:23:53.112Z,1.00
2018-03-28T19:26:21.380Z,1.10
2018-03-28T19:28:49.663Z,1.00
2018-03-28T19:31:17.909Z,1.20
2018-03-28T19:33:45.372Z,1.00
2018-03-28T19:36:12.840Z,0.87
2018-03-28T19:38:41.075Z,1.50
2018-03-28T19:41:08.563Z,1.77
2018-03-28T19:43:36.022Z,1.50
2018-03-28T19:46:03.522Z,1.73
2018-03-28T19:48:31.028Z,1.70
2018-03-28T19:50:59.346Z,1.60
2018-03-28T19:53:26.806Z,2.13
2018-03-28T19:55:54.331Z,1.40
2018-03-28T19:58:21.824Z,1.63
2018-03-28T20:00:49.288Z,1.43
2018-03-28T20:03:16.789Z,1.47
2018-03-28T20:05:44.258Z,1.83
2018-03-28T20:08:12.480Z,1.27
2018-03-28T20:10:39.962Z,1.40
2018-03-28T20:13:07.417Z,1.67
2018-03-28T20:15:34.903Z,1.30
2018-03-28T20:18:02.412Z,1.33
2018-03-28T20:20:29.905Z,1.73
2018-03-28T20:22:58.907Z,1.70
2018-03-28T20:25:27.181Z,2.10
2018-03-28T20:27:54.675Z,1.30
2018-03-28T20:30:22.140Z,1.40
2018-03-28T20:32:49.646Z,1.63
2018-03-28T20:35:17.116Z,1.30
2018-03-28T20:37:45.364Z,1.53
2018-03-28T20:40:12.875Z,1.87
2018-03-28T20:42:40.326Z,1.30
2018-03-28T20:45:07.808Z,1.40
2018-03-28T20:47:35.303Z,1.77
2018-03-28T20:50:03.532Z,2.03
2018-03-28T20:52:31.019Z,1.70
2018-03-28T20:54:58.593Z,1.10
2018-03-28T20:57:26.863Z,1.00
2018-03-28T20:59:54.315Z,1.20
2018-03-28T21:02:21.830Z,1.13
2018-03-28T21:04:49.316Z,2.00
2018-03-28T21:07:16.831Z,1.70
2018-03-28T21:09:45.182Z,2.30
2018-03-28T21:12:12.683Z,1.10
2018-03-28T21:14:40.171Z,1.20
2018-03-28T21:17:07.670Z,1.30
2018-03-28T21:19:35.874Z,1.10
2018-03-28T21:22:03.364Z,1.33
2018-03-28T21:24:30.883Z,1.20
2018-03-28T21:26:58.336Z,1.27
2018-03-28T21:29:25.826Z,1.10
2018-03-28T21:31:53.304Z,1.20
2018-03-28T21:34:20.827Z,1.33
2018-03-28T21:36:48.296Z,1.60
2018-03-28T21:39:15.748Z,1.30
2018-03-28T21:41:43.244Z,1.60
2018-03-28T21:44:11.493Z,1.53
2018-03-28T21:46:38.931Z,1.70
2018-03-28T21:49:06.444Z,1.40
2018-03-28T21:51:34.660Z,1.40
2018-03-28T21:54:02.121Z,3.63
2018-03-28T21:56:29.636Z,2.20
2018-03-28T21:58:57.128Z,4.00
2018-03-28T22:01:24.617Z,1.70
2018-03-28T22:03:52.088Z,2.43
2018-03-28T22:06:20.324Z,2.07
2018-03-28T22:08:47.780Z,2.70
2018-03-28T22:11:15.266Z,2.70
2018-03-28T22:13:42.722Z,2.77
2018-03-28T22:16:11.021Z,2.93
2018-03-28T22:18:38.608Z,2.90
2018-03-28T22:21:06.065Z,2.93
2018-03-28T22:23:33.548Z,2.93
2018-03-28T22:26:01.116Z,2.40
2018-03-28T22:28:28.594Z,2.20
2018-03-28T22:30:56.901Z,1.80
2018-03-28T22:33:24.368Z,2.10
2018-03-28T22:35:51.832Z,1.83
2018-03-28T22:38:19.707Z,1.90
2018-03-28T22:40:47.199Z,2.40
2018-03-28T22:43:15.439Z,2.00
2018-03-28T22:45:42.996Z,2.30
2018-03-28T22:48:10.459Z,2.20
2018-03-28T22:50:37.924Z,2.10
2018-03-28T22:53:05.377Z,1.77
2018-03-28T22:55:32.855Z,2.10
2018-03-28T22:58:01.176Z,1.70
2018-03-28T23:00:28.611Z,1.67
2018-03-28T23:02:56.092Z,1.73
2018-03-28T23:05:23.579Z,1.80
2018-03-28T23:07:51.040Z,1.50
2018-03-28T23:10:18.507Z,1.50
2018-03-28T23:12:45.968Z,2.03
2018-03-28T23:15:14.187Z,1.50
2018-03-28T23:17:41.661Z,1.63
2018-03-28T23:20:09.112Z,2.00
2018-03-28T23:22:37.311Z,2.33
2018-03-28T23:25:05.559Z,2.23
2018-03-28T23:27:33.013Z,1.97
2018-03-28T23:30:00.476Z,2.17
2018-03-28T23:32:27.941Z,2.20
2018-03-28T23:34:55.416Z,3.00
2018-03-28T23:37:22.854Z,2.90
2018-03-28T23:39:50.335Z,2.37
2018-03-28T23:42:17.796Z,1.70
2018-03-28T23:44:45.291Z,2.00
2018-03-28T23:47:12.752Z,1.80
2018-03-28T23:49:40.204Z,2.00
2018-03-28T23:52:07.684Z,1.70
2018-03-28T23:54:35.142Z,2.13
2018-03-28T23:57:02.603Z,1.93
2018-03-28T23:59:30.058Z,2.30
